Time;durP1;ratioP1;P1;durP2;ratioP2;P2;SDS_P1;SDS_P2;PMS_P1;PMS_P2;Temp;Humidity;BMP_temperature;BMP_pressure;BME280_temperature;BME280_humidity;BME280_pressure;Samples;Min_cycle;Max_cycle;Signal;HPM_P1;HPM_P2
2022/06/07 00:04:57;;;;;;;11.83;8.43;;;;;;;15.94;82.68;100046.41;30852393;28;96704;-66
2022/06/07 00:19:58;;;;;;;16.08;9.60;;;;;;;15.79;82.72;100028.63;30851835;28;96775;-66
2022/06/07 00:34:58;;;;;;;18.13;11.15;;;;;;;15.56;83.14;100029.88;30866062;28;97268;-67
2022/06/07 00:50:13;;;;;;;14.00;9.13;;;;;;;15.68;83.81;100013.97;30968280;28;96732;-68
2022/06/07 01:05:13;;;;;;;16.73;10.30;;;;;;;15.92;82.98;99994.75;30990754;28;96681;-66
2022/06/07 01:20:14;;;;;;;10.45;8.95;;;;;;;15.97;83.10;100003.03;30989073;28;108965;-67
2022/06/07 01:35:15;;;;;;;10.02;8.32;;;;;;;15.95;82.89;99999.72;30987901;28;96996;-66
2022/06/07 01:50:17;;;;;;;10.45;8.10;;;;;;;15.83;83.12;100000.38;30987375;28;96710;-66
2022/06/07 02:05:17;;;;;;;12.20;8.80;;;;;;;15.66;83.32;99988.38;30985780;28;96610;-66
2022/06/07 02:20:17;;;;;;;10.25;7.90;;;;;;;15.61;83.33;99982.78;30983328;28;96772;-66
2022/06/07 02:35:18;;;;;;;10.50;8.48;;;;;;;15.60;83.27;99973.91;30982222;28;97352;-66
2022/06/07 02:50:18;;;;;;;10.13;7.75;;;;;;;15.48;83.02;99962.97;30979333;28;96736;-66
2022/06/07 03:05:19;;;;;;;12.20;7.43;;;;;;;15.28;83.51;99956.81;30979370;28;96728;-66
2022/06/07 03:20:20;;;;;;;12.93;7.78;;;;;;;15.27;83.81;99965.88;30977045;28;97311;-66
2022/06/07 03:35:21;;;;;;;28.00;10.60;;;;;;;15.41;83.43;99964.84;30976893;28;96939;-66
2022/06/07 03:50:22;;;;;;;9.43;8.40;;;;;;;15.67;82.82;99968.53;30973088;28;97460;-66
2022/06/07 04:05:22;;;;;;;9.07;6.60;;;;;;;16.06;82.64;99972.19;30981477;28;97294;-66
2022/06/07 04:20:22;;;;;;;7.78;6.20;;;;;;;16.37;82.23;99965.25;30992311;28;96680;-66
2022/06/07 04:35:23;;;;;;;8.95;5.63;;;;;;;16.80;81.69;99969.16;30991461;28;96643;-67
2022/06/07 04:50:23;;;;;;;8.48;5.10;;;;;;;17.31;80.30;99957.44;30988170;28;96631;-66
2022/06/07 05:05:24;;;;;;;8.73;5.10;;;;;;;17.96;79.00;99985.84;30987313;28;96599;-66
2022/06/07 05:20:24;;;;;;;8.90;4.88;;;;;;;18.50;77.11;99977.94;30987128;28;96608;-65
2022/06/07 05:35:24;;;;;;;6.55;4.10;;;;;;;19.16;75.05;99969.94;30985360;28;96961;-67
2022/06/07 05:50:27;;;;;;;5.17;3.03;;;;;;;20.19;71.92;99961.47;30984462;28;98019;-66
2022/06/07 06:05:27;;;;;;;4.60;3.00;;;;;;;21.60;67.79;99969.91;31039815;28;97372;-68
2022/06/07 06:20:28;;;;;;;5.90;2.90;;;;;;;23.12;62.42;99972.22;31028563;28;97507;-67
2022/06/07 06:35:28;;;;;;;4.60;2.47;;;;;;;23.37;58.30;99979.75;31034469;28;98170;-65
2022/06/07 06:50:28;;;;;;;7.70;2.97;;;;;;;23.05;56.41;99982.47;30983167;28;101510;-66
2022/06/07 07:05:31;;;;;;;9.82;2.97;;;;;;;23.18;55.00;99992.13;31045705;28;97127;-66
2022/06/07 07:20:32;;;;;;;3.93;2.63;;;;;;;23.16;53.96;99989.66;31001580;28;98512;-66
2022/06/07 07:35:34;;;;;;;7.13;4.27;;;;;;;23.81;51.66;99995.84;31005756;28;111037;-66
2022/06/07 07:50:36;;;;;;;3.87;2.40;;;;;;;25.17;48.90;99993.28;30990660;28;96757;-66
2022/06/07 08:05:37;;;;;;;5.43;2.43;;;;;;;26.22;45.27;99985.50;30989341;28;97393;-66
2022/06/07 08:20:38;;;;;;;4.57;2.38;;;;;;;26.44;44.69;99987.03;30992092;28;96715;-67
2022/06/07 08:51:17;;;;;;;7.57;2.87;;;;;;;29.24;39.06;99972.78;30922320;28;97730;-64
2022/06/07 09:06:29;;;;;;;4.47;2.40;;;;;;;30.62;34.70;99958.31;30856248;28;97099;-64
2022/06/07 09:21:31;;;;;;;4.80;1.87;;;;;;;31.66;29.77;99951.06;30859266;28;97573;-64
2022/06/07 09:36:36;;;;;;;2.67;1.70;;;;;;;33.26;28.58;99938.72;30985537;28;97078;-69
2022/06/07 09:51:41;;;;;;;5.23;1.60;;;;;;;34.50;24.85;99926.69;30982522;28;96823;-72
2022/06/07 10:06:48;;;;;;;4.13;1.57;;;;;;;34.04;25.98;99906.34;30982249;28;96746;-64
2022/06/07 10:21:57;;;;;;;5.37;1.70;;;;;;;34.72;24.70;99903.38;30977557;28;97230;-65
2022/06/07 10:37:23;;;;;;;3.77;1.00;;;;;;;34.08;23.49;99902.56;30974558;28;97414;-65
2022/06/07 10:52:31;;;;;;;3.70;0.90;;;;;;;33.69;24.17;99885.25;30963555;28;97963;-64
2022/06/07 11:23:01;;;;;;;7.17;1.77;;;;;;;33.89;24.83;99882.88;30963853;28;97090;-64
2022/06/07 11:38:12;;;;;;;3.20;1.40;;;;;;;33.05;24.77;99864.91;30964288;28;97086;-66
2022/06/07 11:53:34;;;;;;;1.30;1.20;;;;;;;32.29;25.62;99868.22;30963532;28;96872;-64
2022/06/07 12:08:51;;;;;;;4.83;1.77;;;;;;;30.29;28.60;99873.31;30962117;28;97350;-65
2022/06/07 12:24:09;;;;;;;5.00;1.87;;;;;;;28.52;31.25;99901.53;30966485;28;97359;-67
2022/06/07 12:39:15;;;;;;;6.30;1.90;;;;;;;26.37;37.31;99931.91;30890749;28;97133;-66
2022/06/07 12:54:18;;;;;;;5.80;2.53;;;;;;;23.77;44.00;99961.25;30987173;28;97172;-67
2022/06/07 13:09:21;;;;;;;6.33;3.67;;;;;;;22.34;51.07;99977.94;30984719;28;96804;-66
2022/06/07 13:24:25;;;;;;;6.80;5.07;;;;;;;21.55;56.71;99999.66;30984808;28;96771;-65
2022/06/07 13:39:27;;;;;;;8.63;4.70;;;;;;;20.80;60.13;99982.66;30979507;28;97069;-66
2022/06/07 13:54:28;;;;;;;8.63;4.90;;;;;;;20.28;61.33;99983.53;30984697;28;97212;-65
2022/06/07 14:09:30;;;;;;;7.03;5.13;;;;;;;20.11;62.40;99964.56;30977196;28;98548;-65
2022/06/07 14:24:31;;;;;;;7.93;5.27;;;;;;;20.13;63.88;99929.97;30979166;28;97435;-66
2022/06/07 14:39:31;;;;;;;7.45;4.97;;;;;;;20.23;64.49;99929.34;30978240;28;101021;-67
2022/06/07 14:54:34;;;;;;;6.07;3.60;;;;;;;20.36;65.20;99879.56;30969158;28;97518;-67
2022/06/07 15:09:34;;;;;;;7.03;2.90;;;;;;;20.37;65.57;99870.38;30906110;28;97650;-70
2022/06/07 15:24:36;;;;;;;6.60;4.43;;;;;;;20.45;65.22;99872.69;30981000;28;97199;-67
2022/06/07 15:39:36;;;;;;;4.83;3.30;;;;;;;20.98;65.54;99864.38;31030923;28;97716;-67
2022/06/07 15:54:36;;;;;;;6.07;3.83;;;;;;;20.73;65.05;99857.50;31036420;28;97577;-67
2022/06/07 16:09:37;;;;;;;4.40;3.05;;;;;;;20.63;65.25;99858.94;31049529;28;96894;-67
2022/06/07 16:24:37;;;;;;;4.20;2.50;;;;;;;20.44;65.91;99865.63;31047578;28;97320;-67
2022/06/07 16:39:37;;;;;;;3.40;2.25;;;;;;;20.24;66.20;99872.31;31037998;28;96894;-67
2022/06/07 16:54:38;;;;;;;5.90;3.30;;;;;;;20.02;66.09;99888.38;30986021;28;97334;-66
2022/06/07 17:09:39;;;;;;;6.60;3.05;;;;;;;19.68;66.26;99898.19;30985090;28;96757;-66
2022/06/07 17:24:39;;;;;;;6.05;3.20;;;;;;;19.09;67.43;99899.84;30985558;28;96894;-66
2022/06/07 17:39:39;;;;;;;4.28;3.20;;;;;;;18.84;69.43;99901.94;30982253;28;97071;-67
2022/06/07 17:54:40;;;;;;;6.20;3.78;;;;;;;18.70;70.25;99902.13;30980103;28;98092;-66
2022/06/07 18:09:40;;;;;;;4.90;3.80;;;;;;;18.59;71.15;99911.81;30976081;28;97267;-66
2022/06/07 18:24:41;;;;;;;5.80;4.18;;;;;;;18.24;72.25;99904.41;30972396;28;97824;-65
2022/06/07 18:39:42;;;;;;;7.18;4.47;;;;;;;17.93;73.78;99908.97;30968147;28;97092;-63
2022/06/07 18:54:43;;;;;;;5.77;3.53;;;;;;;17.79;73.93;99933.56;30968256;28;97948;-64
2022/06/07 19:09:52;;;;;;;5.77;4.10;;;;;;;17.63;74.91;99932.28;30960254;28;98369;-64
2022/06/07 19:24:52;;;;;;;5.27;3.90;;;;;;;17.46;75.00;99938.25;30970791;28;97027;-63
2022/06/07 19:39:53;;;;;;;5.55;3.65;;;;;;;17.27;75.75;99923.91;31014574;28;97166;-63
2022/06/07 19:54:53;;;;;;;6.72;5.35;;;;;;;16.99;76.82;99927.03;31025724;28;96829;-64
2022/06/07 20:09:54;;;;;;;12.73;7.80;;;;;;;16.73;77.62;99912.69;31055814;28;97382;-64
2022/06/07 20:24:54;;;;;;;11.27;8.15;;;;;;;16.48;78.62;99900.03;30997918;28;98425;-65
2022/06/07 20:39:54;;;;;;;9.57;6.70;;;;;;;16.26;80.13;99894.19;31008538;28;96864;-65
2022/06/07 20:54:55;;;;;;;10.98;8.10;;;;;;;16.31;80.20;99886.28;30990004;28;96673;-65
2022/06/07 21:09:55;;;;;;;15.10;8.75;;;;;;;16.27;81.04;99878.88;30987730;28;96917;-65
2022/06/07 21:24:55;;;;;;;12.30;9.35;;;;;;;16.24;81.40;99890.91;30983632;28;96986;-65
2022/06/07 21:39:57;;;;;;;13.57;8.70;;;;;;;16.31;81.74;99889.00;30981056;28;97396;-65
2022/06/07 21:54:57;;;;;;;13.32;9.48;;;;;;;16.29;81.91;99882.16;30978158;28;96950;-65
2022/06/07 22:09:59;;;;;;;15.50;10.38;;;;;;;16.11;81.99;99872.97;30984115;28;97349;-65
2022/06/07 22:25:00;;;;;;;17.63;12.50;;;;;;;16.13;82.38;99862.84;30981956;28;97809;-64
2022/06/07 22:40:00;;;;;;;20.63;13.43;;;;;;;16.02;82.99;99842.00;30981570;28;96975;-64
2022/06/07 22:55:12;;;;;;;22.10;14.05;;;;;;;15.93;83.32;99832.56;30979958;28;97311;-64
2022/06/07 23:10:12;;;;;;;24.10;15.30;;;;;;;15.90;83.61;99831.13;30977983;28;96701;-66
2022/06/07 23:25:13;;;;;;;20.25;13.18;;;;;;;15.82;83.61;99829.50;30977542;28;96724;-66
2022/06/07 23:40:18;;;;;;;20.80;12.40;;;;;;;15.81;83.94;99833.22;30975085;28;97654;-66
2022/06/07 23:55:19;;;;;;;17.20;11.53;;;;;;;15.76;84.12;99821.44;30976031;28;96954;-65
